sensor_id;sensor_type;location;lat;lon;timestamp;temperature;humidity
7341;DHT22;6870;50.944;6.932;2023-07-31T00:00:09;24.20;36.50
7341;DHT22;6870;50.944;6.932;2023-07-31T00:02:38;24.60;37.40
7341;DHT22;6870;50.944;6.932;2023-07-31T00:05:08;24.30;36.70
7341;DHT22;6870;50.944;6.932;2023-07-31T00:07:36;24.30;37.70
7341;DHT22;6870;50.944;6.932;2023-07-31T00:10:05;24.20;37.20
7341;DHT22;6870;50.944;6.932;2023-07-31T00:12:33;24.50;38.00
7341;DHT22;6870;50.944;6.932;2023-07-31T00:15:02;24.50;37.00
7341;DHT22;6870;50.944;6.932;2023-07-31T00:17:31;24.20;37.20
7341;DHT22;6870;50.944;6.932;2023-07-31T00:19:59;24.30;37.30
7341;DHT22;6870;50.944;6.932;2023-07-31T00:22:28;24.30;37.40
7341;DHT22;6870;50.944;6.932;2023-07-31T00:24:57;24.10;37.30
7341;DHT22;6870;50.944;6.932;2023-07-31T00:27:26;24.60;37.20
7341;DHT22;6870;50.944;6.932;2023-07-31T00:29:54;24.10;37.40
7341;DHT22;6870;50.944;6.932;2023-07-31T00:32:22;24.30;37.50
7341;DHT22;6870;50.944;6.932;2023-07-31T00:34:50;24.30;36.90
7341;DHT22;6870;50.944;6.932;2023-07-31T00:37:18;24.10;37.00
7341;DHT22;6870;50.944;6.932;2023-07-31T00:39:47;24.10;37.50
7341;DHT22;6870;50.944;6.932;2023-07-31T00:42:15;24.30;37.50
7341;DHT22;6870;50.944;6.932;2023-07-31T00:44:43;24.10;37.30
7341;DHT22;6870;50.944;6.932;2023-07-31T00:47:11;24.10;36.90
7341;DHT22;6870;50.944;6.932;2023-07-31T00:49:39;24.30;37.00
7341;DHT22;6870;50.944;6.932;2023-07-31T00:52:09;24.20;36.80
7341;DHT22;6870;50.944;6.932;2023-07-31T00:54:37;24.10;36.50
7341;DHT22;6870;50.944;6.932;2023-07-31T00:57:07;24.10;37.60
7341;DHT22;6870;50.944;6.932;2023-07-31T00:59:35;24.30;36.80
7341;DHT22;6870;50.944;6.932;2023-07-31T01:02:04;24.20;37.40
7341;DHT22;6870;50.944;6.932;2023-07-31T01:04:32;24.20;37.80
7341;DHT22;6870;50.944;6.932;2023-07-31T01:07:04;24.50;37.10
7341;DHT22;6870;50.944;6.932;2023-07-31T01:09:40;24.30;38.00
7341;DHT22;6870;50.944;6.932;2023-07-31T01:12:15;24.40;37.00
7341;DHT22;6870;50.944;6.932;2023-07-31T01:14:51;24.30;37.80
7341;DHT22;6870;50.944;6.932;2023-07-31T01:17:20;24.30;36.90
7341;DHT22;6870;50.944;6.932;2023-07-31T01:19:48;24.10;36.70
7341;DHT22;6870;50.944;6.932;2023-07-31T01:22:33;24.10;36.40
7341;DHT22;6870;50.944;6.932;2023-07-31T01:25:25;24.50;37.60
7341;DHT22;6870;50.944;6.932;2023-07-31T01:28:09;24.10;37.20
7341;DHT22;6870;50.944;6.932;2023-07-31T01:30:44;24.10;37.10
7341;DHT22;6870;50.944;6.932;2023-07-31T01:33:15;24.10;35.80
7341;DHT22;6870;50.944;6.932;2023-07-31T01:35:45;24.30;36.70
7341;DHT22;6870;50.944;6.932;2023-07-31T01:38:13;24.20;36.90
7341;DHT22;6870;50.944;6.932;2023-07-31T01:40:41;24.10;36.40
7341;DHT22;6870;50.944;6.932;2023-07-31T01:43:11;24.20;37.00
7341;DHT22;6870;50.944;6.932;2023-07-31T01:45:39;24.10;36.90
7341;DHT22;6870;50.944;6.932;2023-07-31T01:48:07;24.10;36.50
7341;DHT22;6870;50.944;6.932;2023-07-31T01:50:35;24.20;35.90
7341;DHT22;6870;50.944;6.932;2023-07-31T01:53:03;23.90;36.70
7341;DHT22;6870;50.944;6.932;2023-07-31T01:55:31;23.70;36.10
7341;DHT22;6870;50.944;6.932;2023-07-31T01:57:59;23.50;35.40
7341;DHT22;6870;50.944;6.932;2023-07-31T02:00:28;23.80;36.10
7341;DHT22;6870;50.944;6.932;2023-07-31T02:02:56;24.00;36.90
7341;DHT22;6870;50.944;6.932;2023-07-31T02:05:24;23.70;35.40
7341;DHT22;6870;50.944;6.932;2023-07-31T02:07:52;23.80;35.70
7341;DHT22;6870;50.944;6.932;2023-07-31T02:10:20;24.00;35.80
7341;DHT22;6870;50.944;6.932;2023-07-31T02:12:48;23.60;35.40
7341;DHT22;6870;50.944;6.932;2023-07-31T02:15:16;23.90;35.70
7341;DHT22;6870;50.944;6.932;2023-07-31T02:17:46;23.70;36.20
7341;DHT22;6870;50.944;6.932;2023-07-31T02:20:14;23.90;36.30
7341;DHT22;6870;50.944;6.932;2023-07-31T02:22:42;23.90;37.00
7341;DHT22;6870;50.944;6.932;2023-07-31T02:25:10;23.80;36.40
7341;DHT22;6870;50.944;6.932;2023-07-31T02:27:38;23.90;36.00
7341;DHT22;6870;50.944;6.932;2023-07-31T02:30:07;23.80;37.00
7341;DHT22;6870;50.944;6.932;2023-07-31T02:32:36;23.90;37.00
7341;DHT22;6870;50.944;6.932;2023-07-31T02:35:06;23.80;36.30
7341;DHT22;6870;50.944;6.932;2023-07-31T02:37:35;23.60;35.70
7341;DHT22;6870;50.944;6.932;2023-07-31T02:40:04;23.70;35.60
7341;DHT22;6870;50.944;6.932;2023-07-31T02:42:33;23.50;36.70
7341;DHT22;6870;50.944;6.932;2023-07-31T02:45:01;23.80;36.60
7341;DHT22;6870;50.944;6.932;2023-07-31T02:47:29;23.40;36.70
7341;DHT22;6870;50.944;6.932;2023-07-31T02:49:57;24.10;36.40
7341;DHT22;6870;50.944;6.932;2023-07-31T02:52:27;23.70;36.50
7341;DHT22;6870;50.944;6.932;2023-07-31T02:54:55;23.80;37.10
7341;DHT22;6870;50.944;6.932;2023-07-31T02:57:23;23.50;35.80
7341;DHT22;6870;50.944;6.932;2023-07-31T02:59:51;23.90;36.70
7341;DHT22;6870;50.944;6.932;2023-07-31T03:02:19;23.90;37.20
7341;DHT22;6870;50.944;6.932;2023-07-31T03:04:47;23.80;36.50
7341;DHT22;6870;50.944;6.932;2023-07-31T03:07:15;23.80;37.20
7341;DHT22;6870;50.944;6.932;2023-07-31T03:09:45;23.70;35.70
7341;DHT22;6870;50.944;6.932;2023-07-31T03:12:13;23.60;36.10
7341;DHT22;6870;50.944;6.932;2023-07-31T03:14:41;23.60;36.30
7341;DHT22;6870;50.944;6.932;2023-07-31T03:17:09;23.70;36.30
7341;DHT22;6870;50.944;6.932;2023-07-31T03:19:37;23.80;36.30
7341;DHT22;6870;50.944;6.932;2023-07-31T03:22:05;23.50;35.60
7341;DHT22;6870;50.944;6.932;2023-07-31T03:24:33;23.70;36.10
7341;DHT22;6870;50.944;6.932;2023-07-31T03:27:03;23.90;36.60
7341;DHT22;6870;50.944;6.932;2023-07-31T03:29:31;23.70;37.10
7341;DHT22;6870;50.944;6.932;2023-07-31T03:31:59;23.70;36.70
7341;DHT22;6870;50.944;6.932;2023-07-31T03:34:27;23.70;36.00
7341;DHT22;6870;50.944;6.932;2023-07-31T03:36:55;23.60;35.90
7341;DHT22;6870;50.944;6.932;2023-07-31T03:39:23;23.40;35.90
7341;DHT22;6870;50.944;6.932;2023-07-31T03:41:51;23.40;35.60
7341;DHT22;6870;50.944;6.932;2023-07-31T03:44:21;23.50;35.70
7341;DHT22;6870;50.944;6.932;2023-07-31T03:46:48;23.50;36.50
7341;DHT22;6870;50.944;6.932;2023-07-31T03:49:17;23.30;36.40
7341;DHT22;6870;50.944;6.932;2023-07-31T03:51:45;23.70;35.90
7341;DHT22;6870;50.944;6.932;2023-07-31T03:54:13;23.70;35.80
7341;DHT22;6870;50.944;6.932;2023-07-31T03:56:41;23.50;36.90
7341;DHT22;6870;50.944;6.932;2023-07-31T03:59:09;23.60;36.20
7341;DHT22;6870;50.944;6.932;2023-07-31T04:01:39;23.30;35.60
7341;DHT22;6870;50.944;6.932;2023-07-31T04:04:07;23.60;35.60
7341;DHT22;6870;50.944;6.932;2023-07-31T04:06:35;23.50;35.70
7341;DHT22;6870;50.944;6.932;2023-07-31T04:09:03;23.50;35.30
7341;DHT22;6870;50.944;6.932;2023-07-31T04:11:31;23.40;36.00
7341;DHT22;6870;50.944;6.932;2023-07-31T04:13:59;23.50;36.40
7341;DHT22;6870;50.944;6.932;2023-07-31T04:16:27;23.30;36.00
7341;DHT22;6870;50.944;6.932;2023-07-31T04:18:56;23.30;35.30
7341;DHT22;6870;50.944;6.932;2023-07-31T04:21:24;23.70;35.80
7341;DHT22;6870;50.944;6.932;2023-07-31T04:23:52;23.70;35.50
7341;DHT22;6870;50.944;6.932;2023-07-31T04:26:22;23.70;35.70
7341;DHT22;6870;50.944;6.932;2023-07-31T04:28:50;23.50;35.50
7341;DHT22;6870;50.944;6.932;2023-07-31T04:31:18;23.50;36.00
7341;DHT22;6870;50.944;6.932;2023-07-31T04:33:46;23.70;35.90
7341;DHT22;6870;50.944;6.932;2023-07-31T04:36:16;23.60;36.10
7341;DHT22;6870;50.944;6.932;2023-07-31T04:38:44;23.70;37.00
7341;DHT22;6870;50.944;6.932;2023-07-31T04:41:11;23.30;35.50
7341;DHT22;6870;50.944;6.932;2023-07-31T04:43:39;23.80;35.80
7341;DHT22;6870;50.944;6.932;2023-07-31T04:46:08;23.80;36.10
7341;DHT22;6870;50.944;6.932;2023-07-31T04:48:36;23.50;36.70
7341;DHT22;6870;50.944;6.932;2023-07-31T04:51:04;23.50;35.30
7341;DHT22;6870;50.944;6.932;2023-07-31T04:53:33;23.50;36.80
7341;DHT22;6870;50.944;6.932;2023-07-31T04:56:01;23.60;35.40
7341;DHT22;6870;50.944;6.932;2023-07-31T04:58:29;23.50;36.70
7341;DHT22;6870;50.944;6.932;2023-07-31T05:00:57;23.50;36.10
7341;DHT22;6870;50.944;6.932;2023-07-31T05:03:25;23.40;35.50
7341;DHT22;6870;50.944;6.932;2023-07-31T05:05:53;23.60;36.10
7341;DHT22;6870;50.944;6.932;2023-07-31T05:08:21;23.80;36.50
7341;DHT22;6870;50.944;6.932;2023-07-31T05:10:51;23.50;36.60
7341;DHT22;6870;50.944;6.932;2023-07-31T05:13:19;23.70;35.80
7341;DHT22;6870;50.944;6.932;2023-07-31T05:15:46;23.50;35.80
7341;DHT22;6870;50.944;6.932;2023-07-31T05:18:16;23.70;35.80
7341;DHT22;6870;50.944;6.932;2023-07-31T05:20:44;23.50;35.90
7341;DHT22;6870;50.944;6.932;2023-07-31T05:23:12;23.60;35.60
7341;DHT22;6870;50.944;6.932;2023-07-31T05:25:40;23.50;36.90
7341;DHT22;6870;50.944;6.932;2023-07-31T05:28:09;23.70;36.40
7341;DHT22;6870;50.944;6.932;2023-07-31T05:30:37;23.70;36.10
7341;DHT22;6870;50.944;6.932;2023-07-31T05:33:05;23.60;37.20
7341;DHT22;6870;50.944;6.932;2023-07-31T05:35:33;23.50;36.10
7341;DHT22;6870;50.944;6.932;2023-07-31T05:38:01;23.60;36.50
7341;DHT22;6870;50.944;6.932;2023-07-31T05:40:32;23.60;36.70
7341;DHT22;6870;50.944;6.932;2023-07-31T05:43:00;23.70;38.50
7341;DHT22;6870;50.944;6.932;2023-07-31T05:45:29;23.90;38.00
7341;DHT22;6870;50.944;6.932;2023-07-31T05:47:57;24.00;37.70
7341;DHT22;6870;50.944;6.932;2023-07-31T05:50:25;23.80;37.20
7341;DHT22;6870;50.944;6.932;2023-07-31T05:52:53;23.90;37.70
7341;DHT22;6870;50.944;6.932;2023-07-31T05:55:21;23.60;36.90
7341;DHT22;6870;50.944;6.932;2023-07-31T05:57:50;23.80;36.90
7341;DHT22;6870;50.944;6.932;2023-07-31T06:00:18;23.60;36.70
7341;DHT22;6870;50.944;6.932;2023-07-31T06:02:48;23.80;37.60
7341;DHT22;6870;50.944;6.932;2023-07-31T06:05:17;23.80;37.60
7341;DHT22;6870;50.944;6.932;2023-07-31T06:07:45;23.90;38.20
7341;DHT22;6870;50.944;6.932;2023-07-31T06:10:12;23.50;37.40
7341;DHT22;6870;50.944;6.932;2023-07-31T06:12:41;23.90;37.20
7341;DHT22;6870;50.944;6.932;2023-07-31T06:15:09;23.80;37.20
7341;DHT22;6870;50.944;6.932;2023-07-31T06:17:37;23.60;36.90
7341;DHT22;6870;50.944;6.932;2023-07-31T06:20:08;23.60;37.70
7341;DHT22;6870;50.944;6.932;2023-07-31T06:22:36;23.20;39.10
7341;DHT22;6870;50.944;6.932;2023-07-31T06:25:05;23.50;38.40
7341;DHT22;6870;50.944;6.932;2023-07-31T06:27:33;23.30;38.00
7341;DHT22;6870;50.944;6.932;2023-07-31T06:30:01;23.30;39.30
7341;DHT22;6870;50.944;6.932;2023-07-31T06:32:30;23.30;39.30
7341;DHT22;6870;50.944;6.932;2023-07-31T06:34:58;23.20;38.70
7341;DHT22;6870;50.944;6.932;2023-07-31T06:37:27;23.10;40.00
7341;DHT22;6870;50.944;6.932;2023-07-31T06:39:55;22.80;39.20
7341;DHT22;6870;50.944;6.932;2023-07-31T06:42:23;22.90;40.10
7341;DHT22;6870;50.944;6.932;2023-07-31T06:44:52;22.80;40.80
7341;DHT22;6870;50.944;6.932;2023-07-31T06:47:20;22.80;41.20
7341;DHT22;6870;50.944;6.932;2023-07-31T06:49:48;22.80;41.80
7341;DHT22;6870;50.944;6.932;2023-07-31T06:52:16;22.70;41.80
7341;DHT22;6870;50.944;6.932;2023-07-31T06:55:01;22.80;41.80
7341;DHT22;6870;50.944;6.932;2023-07-31T06:57:30;22.60;42.90
7341;DHT22;6870;50.944;6.932;2023-07-31T06:59:58;22.70;42.40
7341;DHT22;6870;50.944;6.932;2023-07-31T07:02:26;22.80;42.20
7341;DHT22;6870;50.944;6.932;2023-07-31T07:04:54;22.70;41.80
7341;DHT22;6870;50.944;6.932;2023-07-31T07:07:22;22.40;42.60
7341;DHT22;6870;50.944;6.932;2023-07-31T07:09:52;22.60;43.60
7341;DHT22;6870;50.944;6.932;2023-07-31T07:12:20;22.50;44.10
7341;DHT22;6870;50.944;6.932;2023-07-31T07:14:48;22.20;44.10
7341;DHT22;6870;50.944;6.932;2023-07-31T07:17:16;22.60;44.20
7341;DHT22;6870;50.944;6.932;2023-07-31T07:19:44;22.60;44.00
7341;DHT22;6870;50.944;6.932;2023-07-31T07:22:13;22.30;44.20
7341;DHT22;6870;50.944;6.932;2023-07-31T07:24:41;22.60;44.60
7341;DHT22;6870;50.944;6.932;2023-07-31T07:27:10;22.40;45.10
7341;DHT22;6870;50.944;6.932;2023-07-31T07:29:38;22.10;45.30
7341;DHT22;6870;50.944;6.932;2023-07-31T07:32:07;22.20;45.10
7341;DHT22;6870;50.944;6.932;2023-07-31T07:34:35;22.60;45.20
7341;DHT22;6870;50.944;6.932;2023-07-31T07:37:04;22.80;44.50
7341;DHT22;6870;50.944;6.932;2023-07-31T07:39:32;22.70;44.10
7341;DHT22;6870;50.944;6.932;2023-07-31T07:42:00;22.70;43.60
7341;DHT22;6870;50.944;6.932;2023-07-31T07:44:29;22.90;44.20
7341;DHT22;6870;50.944;6.932;2023-07-31T07:46:58;22.50;43.90
7341;DHT22;6870;50.944;6.932;2023-07-31T07:49:26;22.80;44.60
7341;DHT22;6870;50.944;6.932;2023-07-31T07:51:54;22.30;43.50
7341;DHT22;6870;50.944;6.932;2023-07-31T07:54:22;22.30;46.50
7341;DHT22;6870;50.944;6.932;2023-07-31T07:56:50;22.30;46.80
7341;DHT22;6870;50.944;6.932;2023-07-31T07:59:18;22.30;46.80
7341;DHT22;6870;50.944;6.932;2023-07-31T08:01:48;22.50;45.90
7341;DHT22;6870;50.944;6.932;2023-07-31T08:04:16;22.40;45.60
7341;DHT22;6870;50.944;6.932;2023-07-31T08:06:44;22.30;45.50
7341;DHT22;6870;50.944;6.932;2023-07-31T08:09:12;22.50;45.50
7341;DHT22;6870;50.944;6.932;2023-07-31T08:11:40;22.10;46.30
7341;DHT22;6870;50.944;6.932;2023-07-31T08:14:08;22.50;46.10
7341;DHT22;6870;50.944;6.932;2023-07-31T08:16:36;22.60;45.50
7341;DHT22;6870;50.944;6.932;2023-07-31T08:19:06;22.70;45.00
7341;DHT22;6870;50.944;6.932;2023-07-31T08:21:34;22.90;45.00
7341;DHT22;6870;50.944;6.932;2023-07-31T08:24:02;22.70;44.40
7341;DHT22;6870;50.944;6.932;2023-07-31T08:26:30;23.10;44.40
7341;DHT22;6870;50.944;6.932;2023-07-31T08:28:59;22.80;43.80
7341;DHT22;6870;50.944;6.932;2023-07-31T08:31:27;22.80;44.00
7341;DHT22;6870;50.944;6.932;2023-07-31T08:33:56;22.90;43.80
7341;DHT22;6870;50.944;6.932;2023-07-31T08:36:25;22.90;44.00
7341;DHT22;6870;50.944;6.932;2023-07-31T08:38:56;23.10;43.70
7341;DHT22;6870;50.944;6.932;2023-07-31T08:41:24;23.10;43.30
7341;DHT22;6870;50.944;6.932;2023-07-31T08:43:53;23.40;43.50
7341;DHT22;6870;50.944;6.932;2023-07-31T08:46:21;22.90;42.60
7341;DHT22;6870;50.944;6.932;2023-07-31T08:48:51;22.90;43.00
7341;DHT22;6870;50.944;6.932;2023-07-31T08:51:21;23.00;43.10
7341;DHT22;6870;50.944;6.932;2023-07-31T08:53:50;23.00;42.50
7341;DHT22;6870;50.944;6.932;2023-07-31T08:56:20;23.30;43.10
7341;DHT22;6870;50.944;6.932;2023-07-31T08:58:49;23.10;42.70
7341;DHT22;6870;50.944;6.932;2023-07-31T09:01:18;23.20;42.90
7341;DHT22;6870;50.944;6.932;2023-07-31T09:03:47;23.30;42.80
7341;DHT22;6870;50.944;6.932;2023-07-31T09:06:18;22.90;41.90
7341;DHT22;6870;50.944;6.932;2023-07-31T09:08:50;23.20;42.70
7341;DHT22;6870;50.944;6.932;2023-07-31T09:11:21;23.40;42.90
7341;DHT22;6870;50.944;6.932;2023-07-31T09:13:51;23.10;42.50
7341;DHT22;6870;50.944;6.932;2023-07-31T09:16:27;23.10;42.20
7341;DHT22;6870;50.944;6.932;2023-07-31T09:18:57;23.50;42.50
7341;DHT22;6870;50.944;6.932;2023-07-31T09:21:28;23.50;41.80
7341;DHT22;6870;50.944;6.932;2023-07-31T09:23:58;23.40;41.30
7341;DHT22;6870;50.944;6.932;2023-07-31T09:26:30;23.50;41.50
7341;DHT22;6870;50.944;6.932;2023-07-31T09:29:00;23.80;42.30
7341;DHT22;6870;50.944;6.932;2023-07-31T09:31:33;23.70;42.00
7341;DHT22;6870;50.944;6.932;2023-07-31T09:34:01;23.60;41.50
7341;DHT22;6870;50.944;6.932;2023-07-31T09:36:30;23.50;40.60
7341;DHT22;6870;50.944;6.932;2023-07-31T09:39:03;23.70;40.60
7341;DHT22;6870;50.944;6.932;2023-07-31T09:41:36;23.60;40.90
7341;DHT22;6870;50.944;6.932;2023-07-31T09:44:05;23.90;40.50
7341;DHT22;6870;50.944;6.932;2023-07-31T09:46:35;23.60;39.80
7341;DHT22;6870;50.944;6.932;2023-07-31T09:49:08;24.00;40.30
7341;DHT22;6870;50.944;6.932;2023-07-31T09:51:37;24.00;40.30
7341;DHT22;6870;50.944;6.932;2023-07-31T09:54:14;23.80;39.40
7341;DHT22;6870;50.944;6.932;2023-07-31T09:56:44;24.00;39.90
7341;DHT22;6870;50.944;6.932;2023-07-31T09:59:15;23.90;39.70
7341;DHT22;6870;50.944;6.932;2023-07-31T10:01:49;24.10;39.20
7341;DHT22;6870;50.944;6.932;2023-07-31T10:04:18;24.00;39.60
7341;DHT22;6870;50.944;6.932;2023-07-31T10:06:53;24.40;39.10
7341;DHT22;6870;50.944;6.932;2023-07-31T10:09:25;24.50;39.80
7341;DHT22;6870;50.944;6.932;2023-07-31T10:12:00;24.30;38.70
7341;DHT22;6870;50.944;6.932;2023-07-31T10:14:29;24.30;39.20
7341;DHT22;6870;50.944;6.932;2023-07-31T10:16:58;24.50;39.10
7341;DHT22;6870;50.944;6.932;2023-07-31T10:19:26;24.20;38.80
7341;DHT22;6870;50.944;6.932;2023-07-31T10:21:57;24.40;39.00
7341;DHT22;6870;50.944;6.932;2023-07-31T10:24:27;24.20;39.10
7341;DHT22;6870;50.944;6.932;2023-07-31T10:26:57;24.20;38.70
7341;DHT22;6870;50.944;6.932;2023-07-31T10:29:28;24.50;39.20
7341;DHT22;6870;50.944;6.932;2023-07-31T10:31:58;24.30;38.20
7341;DHT22;6870;50.944;6.932;2023-07-31T10:34:27;24.40;38.90
7341;DHT22;6870;50.944;6.932;2023-07-31T10:37:19;24.40;38.00
7341;DHT22;6870;50.944;6.932;2023-07-31T10:40:00;24.30;38.50
7341;DHT22;6870;50.944;6.932;2023-07-31T10:42:34;24.80;38.70
7341;DHT22;6870;50.944;6.932;2023-07-31T10:45:04;24.70;38.70
7341;DHT22;6870;50.944;6.932;2023-07-31T10:47:37;24.80;37.80
7341;DHT22;6870;50.944;6.932;2023-07-31T10:50:16;24.40;38.00
7341;DHT22;6870;50.944;6.932;2023-07-31T10:52:50;24.30;37.30
7341;DHT22;6870;50.944;6.932;2023-07-31T10:55:28;25.00;38.80
7341;DHT22;6870;50.944;6.932;2023-07-31T10:58:05;24.50;38.30
7341;DHT22;6870;50.944;6.932;2023-07-31T11:00:33;24.40;38.40
7341;DHT22;6870;50.944;6.932;2023-07-31T11:03:05;25.00;38.00
7341;DHT22;6870;50.944;6.932;2023-07-31T11:05:49;25.00;38.50
7341;DHT22;6870;50.944;6.932;2023-07-31T11:08:21;24.60;38.00
7341;DHT22;6870;50.944;6.932;2023-07-31T11:11:04;24.50;37.90
7341;DHT22;6870;50.944;6.932;2023-07-31T11:13:39;25.00;36.70
7341;DHT22;6870;50.944;6.932;2023-07-31T11:16:08;24.80;38.00
7341;DHT22;6870;50.944;6.932;2023-07-31T11:18:38;24.40;36.80
7341;DHT22;6870;50.944;6.932;2023-07-31T11:21:08;24.50;37.20
7341;DHT22;6870;50.944;6.932;2023-07-31T11:23:39;24.80;36.60
7341;DHT22;6870;50.944;6.932;2023-07-31T11:26:09;25.00;36.60
7341;DHT22;6870;50.944;6.932;2023-07-31T11:28:37;25.00;37.20
7341;DHT22;6870;50.944;6.932;2023-07-31T11:31:09;25.00;36.70
7341;DHT22;6870;50.944;6.932;2023-07-31T11:33:38;25.00;37.10
7341;DHT22;6870;50.944;6.932;2023-07-31T11:36:06;24.90;36.50
7341;DHT22;6870;50.944;6.932;2023-07-31T11:38:34;25.10;36.70
7341;DHT22;6870;50.944;6.932;2023-07-31T11:41:03;25.10;36.70
7341;DHT22;6870;50.944;6.932;2023-07-31T11:43:33;24.80;36.10
7341;DHT22;6870;50.944;6.932;2023-07-31T11:46:03;25.10;36.70
7341;DHT22;6870;50.944;6.932;2023-07-31T11:48:34;24.70;36.30
7341;DHT22;6870;50.944;6.932;2023-07-31T11:51:05;25.10;36.70
7341;DHT22;6870;50.944;6.932;2023-07-31T11:53:40;24.80;36.40
7341;DHT22;6870;50.944;6.932;2023-07-31T11:56:13;24.90;36.40
7341;DHT22;6870;50.944;6.932;2023-07-31T11:58:46;25.00;36.50
7341;DHT22;6870;50.944;6.932;2023-07-31T12:01:16;25.00;36.60
7341;DHT22;6870;50.944;6.932;2023-07-31T12:03:47;25.10;36.70
7341;DHT22;6870;50.944;6.932;2023-07-31T12:06:16;25.10;36.70
7341;DHT22;6870;50.944;6.932;2023-07-31T12:08:44;25.10;36.40
7341;DHT22;6870;50.944;6.932;2023-07-31T12:11:12;25.30;36.70
7341;DHT22;6870;50.944;6.932;2023-07-31T12:13:41;25.00;36.50
7341;DHT22;6870;50.944;6.932;2023-07-31T12:16:11;25.30;36.80
7341;DHT22;6870;50.944;6.932;2023-07-31T12:18:39;25.10;36.50
7341;DHT22;6870;50.944;6.932;2023-07-31T12:21:08;25.10;36.70
7341;DHT22;6870;50.944;6.932;2023-07-31T12:23:38;24.80;36.50
7341;DHT22;6870;50.944;6.932;2023-07-31T12:26:10;25.00;36.60
7341;DHT22;6870;50.944;6.932;2023-07-31T12:28:42;25.20;36.80
7341;DHT22;6870;50.944;6.932;2023-07-31T12:31:13;25.00;36.70
7341;DHT22;6870;50.944;6.932;2023-07-31T12:33:44;24.80;36.40
7341;DHT22;6870;50.944;6.932;2023-07-31T12:36:14;24.90;36.50
7341;DHT22;6870;50.944;6.932;2023-07-31T12:38:44;25.10;36.70
7341;DHT22;6870;50.944;6.932;2023-07-31T12:41:13;24.80;36.60
7341;DHT22;6870;50.944;6.932;2023-07-31T12:43:43;24.90;36.50
7341;DHT22;6870;50.944;6.932;2023-07-31T12:46:13;25.20;37.00
7341;DHT22;6870;50.944;6.932;2023-07-31T12:48:41;24.90;36.50
7341;DHT22;6870;50.944;6.932;2023-07-31T12:51:09;25.40;36.90
7341;DHT22;6870;50.944;6.932;2023-07-31T12:53:37;24.90;36.70
7341;DHT22;6870;50.944;6.932;2023-07-31T12:56:05;25.00;36.70
7341;DHT22;6870;50.944;6.932;2023-07-31T12:58:33;24.90;36.50
7341;DHT22;6870;50.944;6.932;2023-07-31T13:01:01;24.90;37.00
7341;DHT22;6870;50.944;6.932;2023-07-31T13:03:31;25.30;36.80
7341;DHT22;6870;50.944;6.932;2023-07-31T13:05:59;25.00;37.10
7341;DHT22;6870;50.944;6.932;2023-07-31T13:08:27;25.00;37.10
7341;DHT22;6870;50.944;6.932;2023-07-31T13:10:55;24.90;36.50
7341;DHT22;6870;50.944;6.932;2023-07-31T13:13:23;25.10;36.70
7341;DHT22;6870;50.944;6.932;2023-07-31T13:15:51;25.40;36.90
7341;DHT22;6870;50.944;6.932;2023-07-31T13:18:19;25.00;36.60
7341;DHT22;6870;50.944;6.932;2023-07-31T13:20:49;25.10;37.40
7341;DHT22;6870;50.944;6.932;2023-07-31T13:23:17;25.10;36.70
7341;DHT22;6870;50.944;6.932;2023-07-31T13:25:45;25.20;36.70
7341;DHT22;6870;50.944;6.932;2023-07-31T13:28:13;25.10;36.70
7341;DHT22;6870;50.944;6.932;2023-07-31T13:30:41;25.20;36.70
7341;DHT22;6870;50.944;6.932;2023-07-31T13:33:09;25.20;36.80
7341;DHT22;6870;50.944;6.932;2023-07-31T13:35:59;25.70;37.10
7341;DHT22;6870;50.944;6.932;2023-07-31T13:38:27;25.20;36.50
7341;DHT22;6870;50.944;6.932;2023-07-31T13:40:55;25.40;36.50
7341;DHT22;6870;50.944;6.932;2023-07-31T13:43:23;25.30;36.20
7341;DHT22;6870;50.944;6.932;2023-07-31T13:45:51;25.40;36.20
7341;DHT22;6870;50.944;6.932;2023-07-31T13:48:19;25.60;36.10
7341;DHT22;6870;50.944;6.932;2023-07-31T13:50:47;25.60;36.00
7341;DHT22;6870;50.944;6.932;2023-07-31T13:53:16;25.50;35.80
7341;DHT22;6870;50.944;6.932;2023-07-31T13:55:44;25.70;35.70
7341;DHT22;6870;50.944;6.932;2023-07-31T13:58:12;25.40;35.30
7341;DHT22;6870;50.944;6.932;2023-07-31T14:00:40;25.90;35.50
7341;DHT22;6870;50.944;6.932;2023-07-31T14:03:08;25.80;35.30
7341;DHT22;6870;50.944;6.932;2023-07-31T14:05:37;25.60;35.10
7341;DHT22;6870;50.944;6.932;2023-07-31T14:08:05;25.50;35.00
7341;DHT22;6870;50.944;6.932;2023-07-31T14:10:34;25.90;35.30
7341;DHT22;6870;50.944;6.932;2023-07-31T14:13:02;25.80;35.10
7341;DHT22;6870;50.944;6.932;2023-07-31T14:15:30;25.90;35.20
7341;DHT22;6870;50.944;6.932;2023-07-31T14:17:59;25.80;35.30
7341;DHT22;6870;50.944;6.932;2023-07-31T14:20:28;26.00;35.40
7341;DHT22;6870;50.944;6.932;2023-07-31T14:22:56;26.00;35.60
7341;DHT22;6870;50.944;6.932;2023-07-31T14:25:24;25.40;35.00
7341;DHT22;6870;50.944;6.932;2023-07-31T14:27:54;25.60;35.30
7341;DHT22;6870;50.944;6.932;2023-07-31T14:30:22;25.50;35.20
7341;DHT22;6870;50.944;6.932;2023-07-31T14:32:50;25.90;35.50
7341;DHT22;6870;50.944;6.932;2023-07-31T14:35:18;25.90;35.30
7341;DHT22;6870;50.944;6.932;2023-07-31T14:37:46;25.70;35.20
7341;DHT22;6870;50.944;6.932;2023-07-31T14:40:14;25.80;35.60
7341;DHT22;6870;50.944;6.932;2023-07-31T14:42:42;25.40;34.40
7341;DHT22;6870;50.944;6.932;2023-07-31T14:45:12;25.30;34.00
7341;DHT22;6870;50.944;6.932;2023-07-31T14:47:40;25.20;33.60
7341;DHT22;6870;50.944;6.932;2023-07-31T14:50:09;25.40;33.70
7341;DHT22;6870;50.944;6.932;2023-07-31T14:52:39;25.30;33.60
7341;DHT22;6870;50.944;6.932;2023-07-31T14:55:07;25.30;33.00
7341;DHT22;6870;50.944;6.932;2023-07-31T14:57:36;25.40;33.10
7341;DHT22;6870;50.944;6.932;2023-07-31T15:00:05;25.30;32.70
7341;DHT22;6870;50.944;6.932;2023-07-31T15:02:35;25.20;32.90
7341;DHT22;6870;50.944;6.932;2023-07-31T15:05:04;25.30;32.90
7341;DHT22;6870;50.944;6.932;2023-07-31T15:07:33;25.00;31.60
7341;DHT22;6870;50.944;6.932;2023-07-31T15:10:02;24.60;31.20
7341;DHT22;6870;50.944;6.932;2023-07-31T15:12:30;24.50;32.10
7341;DHT22;6870;50.944;6.932;2023-07-31T15:14:59;24.90;32.80
7341;DHT22;6870;50.944;6.932;2023-07-31T15:17:27;24.30;32.30
7341;DHT22;6870;50.944;6.932;2023-07-31T15:19:58;24.30;33.50
7341;DHT22;6870;50.944;6.932;2023-07-31T15:22:29;24.20;33.00
7341;DHT22;6870;50.944;6.932;2023-07-31T15:24:58;24.10;33.30
7341;DHT22;6870;50.944;6.932;2023-07-31T15:27:26;24.20;34.00
7341;DHT22;6870;50.944;6.932;2023-07-31T15:29:54;24.60;34.00
7341;DHT22;6870;50.944;6.932;2023-07-31T15:32:22;24.40;33.50
7341;DHT22;6870;50.944;6.932;2023-07-31T15:34:50;24.70;34.00
7341;DHT22;6870;50.944;6.932;2023-07-31T15:37:20;24.30;33.80
7341;DHT22;6870;50.944;6.932;2023-07-31T15:39:48;24.60;34.10
7341;DHT22;6870;50.944;6.932;2023-07-31T15:42:16;24.50;34.20
7341;DHT22;6870;50.944;6.932;2023-07-31T15:44:44;24.90;34.60
7341;DHT22;6870;50.944;6.932;2023-07-31T15:47:12;24.80;34.40
7341;DHT22;6870;50.944;6.932;2023-07-31T15:49:40;24.70;34.50
7341;DHT22;6870;50.944;6.932;2023-07-31T15:52:08;24.80;34.50
7341;DHT22;6870;50.944;6.932;2023-07-31T15:54:37;25.10;35.00
7341;DHT22;6870;50.944;6.932;2023-07-31T15:57:06;24.70;34.80
7341;DHT22;6870;50.944;6.932;2023-07-31T15:59:34;24.80;35.20
7341;DHT22;6870;50.944;6.932;2023-07-31T16:02:03;24.40;35.00
7341;DHT22;6870;50.944;6.932;2023-07-31T16:04:31;24.80;35.70
7341;DHT22;6870;50.944;6.932;2023-07-31T16:06:59;24.80;35.30
7341;DHT22;6870;50.944;6.932;2023-07-31T16:09:28;24.80;35.80
7341;DHT22;6870;50.944;6.932;2023-07-31T16:11:57;24.70;35.80
7341;DHT22;6870;50.944;6.932;2023-07-31T16:14:25;24.50;36.10